createdAt,value
2023-03-26T00:00:53.875Z,1000.64
2023-03-26T00:01:53.957Z,1000.65
2023-03-26T00:02:53.885Z,1000.65
2023-03-26T00:03:53.889Z,1000.66
2023-03-26T00:04:53.851Z,1000.67
2023-03-26T00:05:53.975Z,1000.70
2023-03-26T00:06:53.863Z,1000.70
2023-03-26T00:07:53.814Z,1000.71
2023-03-26T00:08:53.799Z,1000.71
2023-03-26T00:09:53.818Z,1000.70
2023-03-26T00:10:53.767Z,1000.70
2023-03-26T00:11:53.781Z,1000.73
2023-03-26T00:12:53.801Z,1000.72
2023-03-26T00:13:53.762Z,1000.70
2023-03-26T00:14:53.783Z,1000.72
2023-03-26T00:15:53.883Z,1000.69
2023-03-26T00:16:53.857Z,1000.69
2023-03-26T00:17:53.719Z,1000.68
2023-03-26T00:18:53.703Z,1000.69
2023-03-26T00:19:53.705Z,1000.67
2023-03-26T00:20:53.696Z,1000.65
2023-03-26T00:21:53.661Z,1000.66
2023-03-26T00:22:53.667Z,1000.66
2023-03-26T00:23:53.742Z,1000.65
2023-03-26T00:24:53.650Z,1000.65
2023-03-26T00:25:53.788Z,1000.66
2023-03-26T00:26:53.716Z,1000.66
2023-03-26T00:27:53.612Z,1000.65
2023-03-26T00:28:54.707Z,1000.63
2023-03-26T00:29:53.620Z,1000.62
2023-03-26T00:30:53.604Z,1000.60
2023-03-26T00:31:53.578Z,1000.62
2023-03-26T00:32:54.170Z,1000.63
2023-03-26T00:33:53.601Z,1000.64
2023-03-26T00:34:54.126Z,1000.62
2023-03-26T00:35:53.928Z,1000.63
2023-03-26T00:36:53.511Z,1000.64
2023-03-26T00:37:53.514Z,1000.64
2023-03-26T00:38:53.582Z,1000.64
2023-03-26T00:39:53.478Z,1000.62
2023-03-26T00:40:53.533Z,1000.60
2023-03-26T00:41:53.476Z,1000.59
2023-03-26T00:42:53.545Z,1000.59
2023-03-26T00:43:53.456Z,1000.54
2023-03-26T00:44:53.453Z,1000.54
2023-03-26T00:45:53.717Z,1000.55
2023-03-26T00:46:53.444Z,1000.54
2023-03-26T00:47:53.525Z,1000.56
2023-03-26T00:48:53.568Z,1000.57
2023-03-26T00:49:53.388Z,1000.57
2023-03-26T00:50:53.392Z,1000.57
2023-03-26T00:51:53.348Z,1000.55
2023-03-26T00:52:53.384Z,1000.55
2023-03-26T00:53:53.336Z,1000.54
2023-03-26T00:54:53.372Z,1000.54
2023-03-26T00:55:53.491Z,1000.54
2023-03-26T00:56:53.360Z,1000.54
2023-03-26T00:57:53.301Z,1000.54
2023-03-26T00:58:53.441Z,1000.52
2023-03-26T00:59:53.275Z,1000.52
2023-03-26T01:00:53.290Z,1000.50
2023-03-26T01:01:53.317Z,1000.49
2023-03-26T01:02:53.357Z,1000.46
2023-03-26T01:04:06.898Z,1000.44
2023-03-26T01:04:53.281Z,1000.41
2023-03-26T01:05:53.452Z,1000.39
2023-03-26T01:06:53.246Z,1000.37
2023-03-26T01:07:53.214Z,1000.36
2023-03-26T01:08:53.191Z,1000.34
2023-03-26T01:09:53.223Z,1000.33
2023-03-26T01:10:53.194Z,1000.34
2023-03-26T01:11:53.152Z,1000.33
2023-03-26T01:12:53.157Z,1000.32
2023-03-26T01:13:53.185Z,1000.30
2023-03-26T01:14:53.163Z,1000.29
2023-03-26T01:15:53.443Z,1000.29
2023-03-26T01:16:53.164Z,1000.29
2023-03-26T01:17:53.200Z,1000.29
2023-03-26T01:18:53.088Z,1000.26
2023-03-26T01:19:53.084Z,1000.27
2023-03-26T01:20:53.077Z,1000.25
2023-03-26T01:21:53.050Z,1000.27
2023-03-26T01:22:53.097Z,1000.23
2023-03-26T01:23:53.039Z,1000.20
2023-03-26T01:24:53.473Z,1000.18
2023-03-26T01:25:53.246Z,1000.16
2023-03-26T01:26:53.039Z,1000.14
2023-03-26T01:27:53.037Z,1000.11
2023-03-26T01:28:53.013Z,1000.09
2023-03-26T01:29:52.986Z,1000.08
2023-03-26T01:30:52.967Z,1000.08
2023-03-26T01:31:52.982Z,1000.09
2023-03-26T01:32:53.256Z,1000.09
2023-03-26T01:33:52.964Z,1000.06
2023-03-26T01:34:52.953Z,1000.05
2023-03-26T01:35:53.376Z,1000.03
2023-03-26T01:36:53.063Z,1000.04
2023-03-26T01:37:52.931Z,1000.03
2023-03-26T01:38:52.939Z,1000.02
2023-03-26T01:39:52.907Z,1000.00
2023-03-26T01:40:52.895Z,999.99
2023-03-26T01:41:52.856Z,999.97
2023-03-26T01:42:52.866Z,999.96
2023-03-26T01:43:52.871Z,999.97
2023-03-26T01:44:52.850Z,999.96
2023-03-26T01:45:52.971Z,999.96
2023-03-26T01:46:52.921Z,999.94
2023-03-26T01:47:52.879Z,999.93
2023-03-26T01:48:52.834Z,999.92
2023-03-26T01:49:52.786Z,999.89
2023-03-26T01:50:52.791Z,999.89
2023-03-26T01:51:52.781Z,999.88
2023-03-26T01:52:52.773Z,999.88
2023-03-26T01:53:52.792Z,999.86
2023-03-26T01:54:52.746Z,999.86
2023-03-26T01:55:52.974Z,999.85
2023-03-26T01:56:53.182Z,999.84
2023-03-26T01:57:52.723Z,999.82
2023-03-26T01:58:52.750Z,999.79
2023-03-26T01:59:52.711Z,999.78
2023-03-26T02:00:52.717Z,999.75
2023-03-26T02:01:52.836Z,999.73
2023-03-26T02:02:52.765Z,999.72
2023-03-26T02:03:52.679Z,999.73
2023-03-26T02:04:52.655Z,999.75
2023-03-26T02:05:52.954Z,999.76
2023-03-26T02:06:52.619Z,999.75
2023-03-26T02:07:52.598Z,999.75
2023-03-26T02:08:52.616Z,999.74
2023-03-26T02:09:52.645Z,999.71
2023-03-26T02:10:52.627Z,999.71
2023-03-26T02:11:52.576Z,999.69
2023-03-26T02:12:52.555Z,999.68
2023-03-26T02:13:52.554Z,999.67
2023-03-26T02:14:52.573Z,999.67
2023-03-26T02:15:52.824Z,999.65
2023-03-26T02:16:52.564Z,999.64
2023-03-26T02:17:52.664Z,999.60
2023-03-26T02:18:52.512Z,999.55
2023-03-26T02:19:52.474Z,999.50
2023-03-26T02:20:52.476Z,999.48
2023-03-26T02:21:52.475Z,999.47
2023-03-26T02:22:52.573Z,999.45
2023-03-26T02:23:52.485Z,999.42
2023-03-26T02:24:52.432Z,999.42
2023-03-26T02:25:52.649Z,999.41
2023-03-26T02:26:52.411Z,999.42
2023-03-26T02:27:52.449Z,999.42
2023-03-26T02:28:52.705Z,999.43
2023-03-26T02:29:52.420Z,999.45
2023-03-26T02:30:52.367Z,999.45
2023-03-26T02:31:52.484Z,999.43
2023-03-26T02:32:52.470Z,999.43
2023-03-26T02:33:52.367Z,999.42
2023-03-26T02:34:52.369Z,999.42
2023-03-26T02:35:52.481Z,999.41
2023-03-26T02:36:52.365Z,999.39
2023-03-26T02:37:52.323Z,999.39
2023-03-26T02:38:52.326Z,999.40
2023-03-26T02:39:52.292Z,999.39
2023-03-26T02:40:52.302Z,999.40
2023-03-26T02:41:52.295Z,999.39
2023-03-26T02:42:52.248Z,999.40
2023-03-26T02:43:52.269Z,999.39
2023-03-26T02:44:52.269Z,999.38
2023-03-26T02:45:52.363Z,999.37
2023-03-26T02:46:52.231Z,999.37
2023-03-26T02:47:52.346Z,999.35
2023-03-26T02:48:52.186Z,999.34
2023-03-26T02:49:52.192Z,999.32
2023-03-26T02:50:52.163Z,999.30
2023-03-26T02:51:52.154Z,999.27
2023-03-26T02:52:52.193Z,999.26
2023-03-26T02:53:52.131Z,999.23
2023-03-26T02:54:52.125Z,999.22
2023-03-26T02:55:52.430Z,999.20
2023-03-26T02:56:52.143Z,999.19
2023-03-26T02:57:52.125Z,999.17
2023-03-26T02:58:52.145Z,999.15
2023-03-26T02:59:52.136Z,999.14
2023-03-26T03:00:52.122Z,999.11
2023-03-26T03:01:52.110Z,999.09
2023-03-26T03:02:52.126Z,999.06
2023-03-26T03:03:52.053Z,999.02
2023-03-26T03:04:52.064Z,999.00
2023-03-26T03:05:52.215Z,998.98
2023-03-26T03:06:52.004Z,998.95
2023-03-26T03:07:52.011Z,998.93
2023-03-26T03:08:52.011Z,998.91
2023-03-26T03:09:51.976Z,998.92
2023-03-26T03:10:51.957Z,998.93
2023-03-26T03:11:51.973Z,998.93
2023-03-26T03:12:51.952Z,998.93
2023-03-26T03:13:51.937Z,998.91
2023-03-26T03:14:51.933Z,998.88
2023-03-26T03:15:51.980Z,998.86
2023-03-26T03:16:51.957Z,998.84
2023-03-26T03:17:51.987Z,998.81
2023-03-26T03:18:51.872Z,998.78
2023-03-26T03:19:51.925Z,998.76
2023-03-26T03:20:51.904Z,998.76
2023-03-26T03:21:51.866Z,998.77
2023-03-26T03:22:51.843Z,998.78
2023-03-26T03:23:52.796Z,998.78
2023-03-26T03:24:51.885Z,998.77
2023-03-26T03:25:52.672Z,998.75
2023-03-26T03:26:51.798Z,998.74
2023-03-26T03:27:51.819Z,998.72
2023-03-26T03:28:51.776Z,998.72
2023-03-26T03:29:51.868Z,998.71
2023-03-26T03:30:51.857Z,998.69
2023-03-26T03:31:51.870Z,998.67
2023-03-26T03:32:51.827Z,998.66
2023-03-26T03:33:51.782Z,998.64
2023-03-26T03:34:52.470Z,998.61
2023-03-26T03:35:51.767Z,998.61
2023-03-26T03:36:51.817Z,998.60
2023-03-26T03:37:51.693Z,998.60
2023-03-26T03:38:51.697Z,998.60
2023-03-26T03:39:51.688Z,998.61
2023-03-26T03:40:51.669Z,998.60
2023-03-26T03:41:53.214Z,998.60
2023-03-26T03:42:51.664Z,998.58
2023-03-26T03:43:51.697Z,998.55
2023-03-26T03:44:51.654Z,998.53
2023-03-26T03:45:51.698Z,998.52
2023-03-26T03:46:52.567Z,998.51
2023-03-26T03:47:51.651Z,998.52
2023-03-26T03:48:51.851Z,998.52
2023-03-26T03:49:51.603Z,998.51
2023-03-26T03:50:52.184Z,998.51
2023-03-26T03:51:51.616Z,998.49
2023-03-26T03:52:51.802Z,998.50
2023-03-26T03:53:52.279Z,998.49
2023-03-26T03:54:51.798Z,998.49
2023-03-26T03:55:52.263Z,998.48
2023-03-26T03:56:51.569Z,998.46
2023-03-26T03:57:51.536Z,998.43
2023-03-26T03:58:51.570Z,998.40
2023-03-26T03:59:52.161Z,998.38
2023-03-26T04:00:51.498Z,998.36
2023-03-26T04:01:51.750Z,998.34
2023-03-26T04:02:51.548Z,998.32
2023-03-26T04:03:51.487Z,998.29
2023-03-26T04:04:51.658Z,998.27
2023-03-26T04:05:51.435Z,998.25
2023-03-26T04:06:52.234Z,998.24
2023-03-26T04:07:51.446Z,998.23
2023-03-26T04:08:51.406Z,998.22
2023-03-26T04:09:51.412Z,998.20
2023-03-26T04:10:51.356Z,998.18
2023-03-26T04:11:51.422Z,998.16
2023-03-26T04:12:51.370Z,998.14
2023-03-26T04:13:51.368Z,998.11
2023-03-26T04:14:51.317Z,998.08
2023-03-26T04:15:51.357Z,998.04
2023-03-26T04:16:51.343Z,998.02
2023-03-26T04:17:51.347Z,997.99
2023-03-26T04:18:51.306Z,997.98
2023-03-26T04:19:51.280Z,997.98
2023-03-26T04:20:51.388Z,997.98
2023-03-26T04:21:51.357Z,997.98
2023-03-26T04:22:51.234Z,997.95
2023-03-26T04:23:51.256Z,997.91
2023-03-26T04:24:51.506Z,997.88
2023-03-26T04:25:51.216Z,997.89
2023-03-26T04:26:51.224Z,997.89
2023-03-26T04:27:51.285Z,997.87
2023-03-26T04:28:51.187Z,997.85
2023-03-26T04:29:51.222Z,997.84
2023-03-26T04:30:51.175Z,997.81
2023-03-26T04:31:51.194Z,997.80
2023-03-26T04:32:51.205Z,997.77
2023-03-26T04:33:51.117Z,997.74
2023-03-26T04:34:51.661Z,997.73
2023-03-26T04:35:51.184Z,997.73
2023-03-26T04:36:51.126Z,997.72
2023-03-26T04:37:51.313Z,997.70
2023-03-26T04:38:51.142Z,997.67
2023-03-26T04:39:51.091Z,997.62
2023-03-26T04:40:51.070Z,997.56
2023-03-26T04:41:51.103Z,997.51
2023-03-26T04:42:51.089Z,997.47
2023-03-26T04:43:51.730Z,997.44
2023-03-26T04:44:51.036Z,997.41
2023-03-26T04:45:51.037Z,997.42
2023-03-26T04:46:51.007Z,997.45
2023-03-26T04:47:51.058Z,997.49
2023-03-26T04:48:51.011Z,997.51
2023-03-26T04:49:51.014Z,997.49
2023-03-26T04:50:50.960Z,997.45
2023-03-26T04:51:51.028Z,997.42
2023-03-26T04:52:51.069Z,997.43
2023-03-26T04:53:51.185Z,997.44
2023-03-26T04:54:50.971Z,997.44
2023-03-26T04:55:50.923Z,997.41
2023-03-26T04:56:51.787Z,997.37
2023-03-26T04:57:51.679Z,997.33
2023-03-26T04:58:50.866Z,997.30
2023-03-26T04:59:50.880Z,997.26
2023-03-26T05:00:50.867Z,997.23
2023-03-26T05:01:51.122Z,997.22
2023-03-26T05:02:50.871Z,997.22
2023-03-26T05:03:50.817Z,997.21
2023-03-26T05:04:50.788Z,997.17
2023-03-26T05:05:50.789Z,997.13
2023-03-26T05:06:50.767Z,997.09
2023-03-26T05:07:50.791Z,997.06
2023-03-26T05:08:50.808Z,997.04
2023-03-26T05:09:50.717Z,997.02
2023-03-26T05:10:50.743Z,996.99
2023-03-26T05:11:51.710Z,996.95
2023-03-26T05:12:50.672Z,996.91
2023-03-26T05:13:50.782Z,996.89
2023-03-26T05:14:50.674Z,996.88
2023-03-26T05:15:50.656Z,996.88
2023-03-26T05:16:50.766Z,996.86
2023-03-26T05:17:50.729Z,996.83
2023-03-26T05:18:50.653Z,996.78
2023-03-26T05:19:50.664Z,996.72
2023-03-26T05:20:50.629Z,996.69
2023-03-26T05:21:50.868Z,996.67
2023-03-26T05:22:50.605Z,996.67
2023-03-26T05:23:50.578Z,996.65
2023-03-26T05:24:50.614Z,996.63
2023-03-26T05:25:50.596Z,996.60
2023-03-26T05:26:53.217Z,996.58
2023-03-26T05:27:50.556Z,996.57
2023-03-26T05:28:50.529Z,996.56
2023-03-26T05:29:50.521Z,996.56
2023-03-26T05:30:50.593Z,996.55
2023-03-26T05:31:50.564Z,996.54
2023-03-26T05:32:50.759Z,996.53
2023-03-26T05:33:50.596Z,996.53
2023-03-26T05:34:50.479Z,996.58
2023-03-26T05:35:50.481Z,996.64
2023-03-26T05:36:50.432Z,996.67
2023-03-26T05:37:50.437Z,996.67
2023-03-26T05:38:50.441Z,996.65
2023-03-26T05:39:50.480Z,996.63
2023-03-26T05:40:50.403Z,996.64
2023-03-26T05:41:51.204Z,996.67
2023-03-26T05:42:50.424Z,996.69
2023-03-26T05:43:50.390Z,996.69
2023-03-26T05:44:50.353Z,996.64
2023-03-26T05:45:50.406Z,996.58
2023-03-26T05:46:50.343Z,996.54
2023-03-26T05:47:50.397Z,996.51
2023-03-26T05:48:50.355Z,996.50
2023-03-26T05:49:50.338Z,996.48
2023-03-26T05:50:50.302Z,996.46
2023-03-26T05:51:50.301Z,996.43
2023-03-26T05:52:50.323Z,996.41
2023-03-26T05:53:50.377Z,996.39
2023-03-26T05:54:50.277Z,996.38
2023-03-26T05:55:50.244Z,996.38
2023-03-26T05:56:50.258Z,996.38
2023-03-26T05:57:50.226Z,996.35
2023-03-26T05:58:51.855Z,996.32
2023-03-26T05:59:50.227Z,996.30
2023-03-26T06:00:50.254Z,996.27
2023-03-26T06:01:50.187Z,996.25
2023-03-26T06:02:50.240Z,996.22
2023-03-26T06:03:50.266Z,996.18
2023-03-26T06:04:50.245Z,996.15
2023-03-26T06:05:50.184Z,996.12
2023-03-26T06:06:50.145Z,996.09
2023-03-26T06:07:50.119Z,996.07
2023-03-26T06:09:01.548Z,996.06
2023-03-26T06:09:50.125Z,996.05
2023-03-26T06:10:50.118Z,996.06
2023-03-26T06:11:50.085Z,996.07
2023-03-26T06:12:50.827Z,996.08
2023-03-26T06:13:50.089Z,996.07
2023-03-26T06:14:50.050Z,996.05
2023-03-26T06:15:50.141Z,996.04
2023-03-26T06:16:50.041Z,996.03
2023-03-26T06:17:50.069Z,996.02
2023-03-26T06:18:50.045Z,995.99
2023-03-26T06:19:50.030Z,995.96
2023-03-26T06:20:49.981Z,995.95
2023-03-26T06:21:50.042Z,995.93
2023-03-26T06:22:49.980Z,995.92
2023-03-26T06:23:50.102Z,995.91
2023-03-26T06:24:49.997Z,995.90
2023-03-26T06:25:49.976Z,995.89
2023-03-26T06:26:49.971Z,995.88
2023-03-26T06:27:49.914Z,995.85
2023-03-26T06:28:49.907Z,995.84
2023-03-26T06:29:49.907Z,995.81
2023-03-26T06:30:50.032Z,995.79
2023-03-26T06:31:49.886Z,995.77
2023-03-26T06:32:49.910Z,995.77
2023-03-26T06:33:49.902Z,995.77
2023-03-26T06:34:49.960Z,995.78
2023-03-26T06:35:49.950Z,995.80
2023-03-26T06:36:49.869Z,995.80
2023-03-26T06:37:49.867Z,995.80
2023-03-26T06:38:49.883Z,995.79
2023-03-26T06:39:49.832Z,995.80
2023-03-26T06:40:49.798Z,995.80
2023-03-26T06:41:49.786Z,995.80
2023-03-26T06:43:09.218Z,995.80
2023-03-26T06:43:49.816Z,995.81
2023-03-26T06:44:49.829Z,995.80
2023-03-26T06:45:49.742Z,995.79
2023-03-26T06:46:49.775Z,995.78
2023-03-26T06:47:49.811Z,995.75
2023-03-26T06:48:49.717Z,995.74
2023-03-26T06:49:49.738Z,995.73
2023-03-26T06:50:49.759Z,995.73
2023-03-26T06:51:49.683Z,995.72
2023-03-26T06:52:49.682Z,995.71
2023-03-26T06:53:49.653Z,995.70
2023-03-26T06:54:49.663Z,995.68
2023-03-26T06:55:49.639Z,995.67
2023-03-26T06:56:49.682Z,995.64
2023-03-26T06:57:49.655Z,995.62
2023-03-26T06:58:49.598Z,995.59
2023-03-26T06:59:49.596Z,995.56
2023-03-26T07:00:49.629Z,995.51
2023-03-26T07:01:49.601Z,995.48
2023-03-26T07:02:49.632Z,995.45
2023-03-26T07:03:49.663Z,995.44
2023-03-26T07:04:49.548Z,995.43
2023-03-26T07:05:49.575Z,995.44
2023-03-26T07:06:49.534Z,995.44
2023-03-26T07:07:49.687Z,995.43
2023-03-26T07:08:49.727Z,995.42
2023-03-26T07:09:49.519Z,995.40
2023-03-26T07:10:49.497Z,995.39
2023-03-26T07:11:49.494Z,995.37
2023-03-26T07:12:49.472Z,995.35
2023-03-26T07:13:49.461Z,995.32
2023-03-26T07:14:49.473Z,995.29
2023-03-26T07:15:49.491Z,995.26
2023-03-26T07:16:49.464Z,995.24
2023-03-26T07:17:49.433Z,995.20
2023-03-26T07:18:49.469Z,995.17
2023-03-26T07:19:49.452Z,995.14
2023-03-26T07:20:49.403Z,995.12
2023-03-26T07:21:49.372Z,995.10
2023-03-26T07:22:49.376Z,995.10
2023-03-26T07:23:49.386Z,995.10
2023-03-26T07:24:49.379Z,995.10
2023-03-26T07:25:49.404Z,995.10
2023-03-26T07:26:49.326Z,995.11
2023-03-26T07:27:50.059Z,995.08
2023-03-26T07:29:04.920Z,995.06
2023-03-26T07:29:49.318Z,995.02
2023-03-26T07:30:49.317Z,994.99
2023-03-26T07:31:49.292Z,994.98
2023-03-26T07:32:49.335Z,994.95
2023-03-26T07:33:49.270Z,994.95
2023-03-26T07:34:49.271Z,994.92
2023-03-26T07:35:49.326Z,994.89
2023-03-26T07:36:49.220Z,994.87
2023-03-26T07:37:49.230Z,994.85
2023-03-26T07:38:49.257Z,994.83
2023-03-26T07:39:49.182Z,994.81
2023-03-26T07:40:49.293Z,994.79
2023-03-26T07:41:49.186Z,994.76
2023-03-26T07:42:49.172Z,994.73
2023-03-26T07:43:49.156Z,994.69
2023-03-26T07:44:49.132Z,994.66
2023-03-26T07:45:49.182Z,994.64
2023-03-26T07:46:49.157Z,994.64
2023-03-26T07:47:49.125Z,994.64
2023-03-26T07:48:49.114Z,994.64
2023-03-26T07:49:49.082Z,994.64
2023-03-26T07:50:49.113Z,994.64
2023-03-26T07:51:49.198Z,994.63
2023-03-26T07:52:49.063Z,994.63
2023-03-26T07:53:49.134Z,994.63
2023-03-26T07:54:49.102Z,994.62
2023-03-26T07:55:49.043Z,994.63
2023-03-26T07:56:49.237Z,994.62
2023-03-26T07:57:49.038Z,994.61
2023-03-26T07:58:49.120Z,994.61
2023-03-26T07:59:49.000Z,994.62
2023-03-26T08:00:49.001Z,994.61
2023-03-26T08:01:49.004Z,994.61
2023-03-26T08:02:49.186Z,994.60
2023-03-26T08:03:48.999Z,994.60
2023-03-26T08:04:49.088Z,994.59
2023-03-26T08:05:48.981Z,994.58
2023-03-26T08:06:48.907Z,994.58
2023-03-26T08:07:48.936Z,994.59
2023-03-26T08:08:48.915Z,994.60
2023-03-26T08:09:48.867Z,994.60
2023-03-26T08:10:48.873Z,994.58
2023-03-26T08:11:48.886Z,994.58
2023-03-26T08:12:48.849Z,994.57
2023-03-26T08:13:48.895Z,994.57
2023-03-26T08:14:48.868Z,994.56
2023-03-26T08:15:48.849Z,994.54
2023-03-26T08:16:48.893Z,994.52
2023-03-26T08:17:48.899Z,994.52
2023-03-26T08:18:48.775Z,994.53
2023-03-26T08:19:48.782Z,994.52
2023-03-26T08:20:48.819Z,994.51
2023-03-26T08:21:48.792Z,994.53
2023-03-26T08:22:48.748Z,994.53
2023-03-26T08:23:50.550Z,994.53
2023-03-26T08:24:48.868Z,994.54
2023-03-26T08:25:48.734Z,994.56
2023-03-26T08:26:48.764Z,994.58
2023-03-26T08:27:48.690Z,994.58
2023-03-26T08:28:48.740Z,994.60
2023-03-26T08:29:48.688Z,994.61
2023-03-26T08:30:48.757Z,994.62
2023-03-26T08:31:48.668Z,994.62
2023-03-26T08:32:48.718Z,994.62
2023-03-26T08:33:48.675Z,994.62
2023-03-26T08:34:48.643Z,994.60
2023-03-26T08:35:48.633Z,994.57
2023-03-26T08:36:48.617Z,994.53
2023-03-26T08:37:48.583Z,994.48
2023-03-26T08:38:48.593Z,994.45
2023-03-26T08:39:48.608Z,994.44
2023-03-26T08:40:48.563Z,994.43
2023-03-26T08:41:48.536Z,994.41
2023-03-26T08:42:48.574Z,994.38
2023-03-26T08:43:48.534Z,994.38
2023-03-26T08:44:48.544Z,994.35
2023-03-26T08:45:48.517Z,994.34
2023-03-26T08:46:48.520Z,994.31
2023-03-26T08:47:48.538Z,994.28
2023-03-26T08:48:48.519Z,994.25
2023-03-26T08:49:48.482Z,994.22
2023-03-26T08:50:48.472Z,994.20
2023-03-26T08:51:48.492Z,994.18
2023-03-26T08:52:48.489Z,994.14
2023-03-26T08:53:48.459Z,994.10
2023-03-26T08:54:48.505Z,994.08
2023-03-26T08:55:48.408Z,994.07
2023-03-26T08:56:48.503Z,994.08
2023-03-26T08:57:48.454Z,994.08
2023-03-26T08:58:48.386Z,994.07
2023-03-26T08:59:48.392Z,994.09
2023-03-26T09:00:48.390Z,994.12
2023-03-26T09:01:48.468Z,994.17
2023-03-26T09:02:48.431Z,994.21
2023-03-26T09:03:48.462Z,994.22
2023-03-26T09:04:48.320Z,994.20
2023-03-26T09:05:48.396Z,994.18
2023-03-26T09:06:48.337Z,994.16
2023-03-26T09:07:48.315Z,994.14
2023-03-26T09:08:54.417Z,994.13
2023-03-26T09:09:48.774Z,994.10
2023-03-26T09:10:48.277Z,994.08
2023-03-26T09:11:48.246Z,994.06
2023-03-26T09:12:48.270Z,994.05
2023-03-26T09:13:48.272Z,994.05
2023-03-26T09:14:48.245Z,994.00
2023-03-26T09:15:48.308Z,993.96
2023-03-26T09:16:48.242Z,993.94
2023-03-26T09:17:48.283Z,993.95
2023-03-26T09:18:48.717Z,993.93
2023-03-26T09:19:48.198Z,993.92
2023-03-26T09:20:48.183Z,993.90
2023-03-26T09:21:48.176Z,993.91
2023-03-26T09:22:48.264Z,993.90
2023-03-26T09:23:48.450Z,993.88
2023-03-26T09:24:48.136Z,993.86
2023-03-26T09:25:48.205Z,993.81
2023-03-26T09:26:48.137Z,993.75
2023-03-26T09:27:48.069Z,993.68
2023-03-26T09:28:48.076Z,993.63
2023-03-26T09:29:48.075Z,993.59
2023-03-26T09:30:48.080Z,993.60
2023-03-26T09:31:48.059Z,993.62
2023-03-26T09:32:48.153Z,993.64
2023-03-26T09:33:48.008Z,993.68
2023-03-26T09:34:48.076Z,993.68
2023-03-26T09:35:48.060Z,993.70
2023-03-26T09:36:48.123Z,993.73
2023-03-26T09:37:57.453Z,993.72
2023-03-26T09:38:47.990Z,993.74
2023-03-26T09:39:47.959Z,993.74
2023-03-26T09:40:48.019Z,993.73
2023-03-26T09:41:47.946Z,993.73
2023-03-26T09:42:48.002Z,993.70
2023-03-26T09:43:47.971Z,993.73
2023-03-26T09:44:48.662Z,993.71
2023-03-26T09:45:47.937Z,993.68
2023-03-26T09:46:47.940Z,993.62
2023-03-26T09:47:47.955Z,993.60
2023-03-26T09:48:47.866Z,993.59
2023-03-26T09:49:47.854Z,993.61
2023-03-26T09:50:47.885Z,993.63
2023-03-26T09:51:47.823Z,993.65
2023-03-26T09:52:47.855Z,993.62
2023-03-26T09:53:47.825Z,993.60
2023-03-26T09:54:47.826Z,993.60
2023-03-26T09:55:47.877Z,993.60
2023-03-26T09:56:47.844Z,993.59
2023-03-26T09:57:47.861Z,993.57
2023-03-26T09:58:47.770Z,993.55
2023-03-26T09:59:47.792Z,993.53
2023-03-26T10:00:47.789Z,993.51
2023-03-26T10:01:48.038Z,993.52
2023-03-26T10:02:47.909Z,993.52
2023-03-26T10:03:47.964Z,993.52
2023-03-26T10:04:47.872Z,993.51
2023-03-26T10:05:47.722Z,993.51
2023-03-26T10:06:47.737Z,993.48
2023-03-26T10:07:48.613Z,993.47
2023-03-26T10:08:47.695Z,993.45
2023-03-26T10:09:47.740Z,993.42
2023-03-26T10:10:47.738Z,993.38
2023-03-26T10:11:47.686Z,993.34
2023-03-26T10:12:47.637Z,993.35
2023-03-26T10:13:47.869Z,993.34
2023-03-26T10:14:47.872Z,993.33
2023-03-26T10:15:47.636Z,993.31
2023-03-26T10:16:47.616Z,993.28
2023-03-26T10:17:47.734Z,993.27
2023-03-26T10:18:47.590Z,993.22
2023-03-26T10:19:47.612Z,993.19
2023-03-26T10:20:47.632Z,993.16
2023-03-26T10:21:47.660Z,993.13
2023-03-26T10:22:47.594Z,993.13
2023-03-26T10:23:47.523Z,993.09
2023-03-26T10:24:47.515Z,993.07
2023-03-26T10:25:47.533Z,993.07
2023-03-26T10:27:09.763Z,993.05
2023-03-26T10:27:47.477Z,993.03
2023-03-26T10:28:47.491Z,993.03
2023-03-26T10:29:47.584Z,993.04
2023-03-26T10:30:47.531Z,993.01
2023-03-26T10:31:47.457Z,993.00
2023-03-26T10:32:47.500Z,992.98
2023-03-26T10:33:47.416Z,992.96
2023-03-26T10:34:47.456Z,992.95
2023-03-26T10:35:47.435Z,992.95
2023-03-26T10:36:47.489Z,992.93
2023-03-26T10:37:47.378Z,992.88
2023-03-26T10:38:47.374Z,992.88
2023-03-26T10:39:47.401Z,992.88
2023-03-26T10:40:47.342Z,992.87
2023-03-26T10:41:47.348Z,992.88
2023-03-26T10:42:47.322Z,992.85
2023-03-26T10:43:57.825Z,992.84
2023-03-26T10:44:47.335Z,992.85
2023-03-26T10:45:47.396Z,992.84
2023-03-26T10:46:47.411Z,992.85
2023-03-26T10:47:47.400Z,992.88
2023-03-26T10:48:47.463Z,992.86
2023-03-26T10:49:47.262Z,992.82
2023-03-26T10:50:47.253Z,992.84
2023-03-26T10:51:47.245Z,992.88
2023-03-26T10:52:47.284Z,992.92
2023-03-26T10:53:47.238Z,992.97
2023-03-26T10:54:47.228Z,993.00
2023-03-26T10:55:48.155Z,992.99
2023-03-26T10:56:47.232Z,993.01
2023-03-26T10:57:47.306Z,992.98
2023-03-26T10:58:49.698Z,992.90
2023-03-26T10:59:47.176Z,992.85
2023-03-26T11:00:47.164Z,992.81
2023-03-26T11:01:47.258Z,992.75
2023-03-26T11:02:47.244Z,992.76
2023-03-26T11:03:47.170Z,992.77
2023-03-26T11:04:47.159Z,992.73
2023-03-26T11:05:47.201Z,992.72
2023-03-26T11:06:47.101Z,992.69
2023-03-26T11:07:47.164Z,992.65
2023-03-26T11:08:47.084Z,992.63
2023-03-26T11:09:47.089Z,992.61
2023-03-26T11:10:47.037Z,992.61
2023-03-26T11:11:47.058Z,992.60
2023-03-26T11:12:47.022Z,992.58
2023-03-26T11:13:47.024Z,992.56
2023-03-26T11:14:47.014Z,992.54
2023-03-26T11:15:47.075Z,992.53
2023-03-26T11:16:46.979Z,992.55
2023-03-26T11:17:47.116Z,992.58
2023-03-26T11:18:46.978Z,992.65
2023-03-26T11:19:46.966Z,992.67
2023-03-26T11:20:47.015Z,992.67
2023-03-26T11:21:46.945Z,992.61
2023-03-26T11:22:46.916Z,992.53
2023-03-26T11:23:46.938Z,992.54
2023-03-26T11:24:46.943Z,992.55
2023-03-26T11:25:46.921Z,992.55
2023-03-26T11:26:46.898Z,992.56
2023-03-26T11:27:46.905Z,992.57
2023-03-26T11:29:03.098Z,992.58
2023-03-26T11:29:46.853Z,992.57
2023-03-26T11:30:46.884Z,992.56
2023-03-26T11:31:46.958Z,992.50
2023-03-26T11:32:46.875Z,992.53
2023-03-26T11:33:47.955Z,992.52
2023-03-26T11:34:46.866Z,992.55
2023-03-26T11:35:46.858Z,992.57
2023-03-26T11:36:47.280Z,992.51
2023-03-26T11:37:46.772Z,992.48
2023-03-26T11:38:46.782Z,992.52
2023-03-26T11:39:46.780Z,992.60
2023-03-26T11:40:46.810Z,992.56
2023-03-26T11:41:46.750Z,992.52
2023-03-26T11:42:46.727Z,992.48
2023-03-26T11:43:46.725Z,992.47
2023-03-26T11:44:46.824Z,992.56
2023-03-26T11:45:46.733Z,992.60
2023-03-26T11:46:46.789Z,992.55
2023-03-26T11:47:46.746Z,992.50
2023-03-26T11:48:46.662Z,992.52
2023-03-26T11:49:46.659Z,992.52
2023-03-26T11:50:46.661Z,992.47
2023-03-26T11:51:46.771Z,992.44
2023-03-26T11:52:47.111Z,992.42
2023-03-26T11:53:46.637Z,992.41
2023-03-26T11:54:46.669Z,992.42
2023-03-26T11:55:46.603Z,992.41
2023-03-26T11:57:04.558Z,992.45
2023-03-26T11:57:46.593Z,992.41
2023-03-26T11:58:46.553Z,992.40
2023-03-26T11:59:56.552Z,992.36
2023-03-26T12:00:46.558Z,992.38
2023-03-26T12:01:46.612Z,992.39
2023-03-26T12:02:46.576Z,992.34
2023-03-26T12:03:46.537Z,992.34
2023-03-26T12:04:46.575Z,992.35
2023-03-26T12:05:46.500Z,992.34
2023-03-26T12:06:46.636Z,992.36
2023-03-26T12:07:46.520Z,992.35
2023-03-26T12:08:46.470Z,992.33
2023-03-26T12:09:46.476Z,992.33
2023-03-26T12:10:46.434Z,992.31
2023-03-26T12:11:46.448Z,992.28
2023-03-26T12:12:46.503Z,992.28
2023-03-26T12:13:46.419Z,992.28
2023-03-26T12:14:46.589Z,992.28
2023-03-26T12:15:46.417Z,992.28
2023-03-26T12:16:46.437Z,992.25
2023-03-26T12:17:46.408Z,992.23
2023-03-26T12:18:46.390Z,992.26
2023-03-26T12:19:46.350Z,992.30
2023-03-26T12:20:46.373Z,992.29
2023-03-26T12:21:46.369Z,992.25
2023-03-26T12:22:47.790Z,992.27
2023-03-26T12:23:46.318Z,992.29
2023-03-26T12:24:46.865Z,992.22
2023-03-26T12:25:46.291Z,992.22